sensor_id;sensor_type;location;lat;lon;timestamp;pressure;altitude;pressure_sealevel;temperature;humidity
40850;BME280;26571;41.610;25.380;2022-10-16T00:02:14;99006.84;;;12.04;74.27
40850;BME280;26571;41.610;25.380;2022-10-16T00:04:40;99003.00;;;11.98;74.45
40850;BME280;26571;41.610;25.380;2022-10-16T00:07:05;99001.53;;;11.96;74.31
40850;BME280;26571;41.610;25.380;2022-10-16T00:09:30;99009.63;;;11.94;73.81
40850;BME280;26571;41.610;25.380;2022-10-16T00:11:56;99014.91;;;11.94;74.13
40850;BME280;26571;41.610;25.380;2022-10-16T00:14:21;99006.28;;;11.92;73.82
40850;BME280;26571;41.610;25.380;2022-10-16T00:16:47;99004.47;;;11.84;74.54
40850;BME280;26571;41.610;25.380;2022-10-16T00:19:12;99008.06;;;11.83;74.31
40850;BME280;26571;41.610;25.380;2022-10-16T00:21:38;99005.59;;;11.82;74.49
40850;BME280;26571;41.610;25.380;2022-10-16T00:24:06;99011.41;;;11.85;74.60
40850;BME280;26571;41.610;25.380;2022-10-16T00:26:35;99011.50;;;11.76;74.41
40850;BME280;26571;41.610;25.380;2022-10-16T00:29:00;99010.69;;;11.75;74.99
40850;BME280;26571;41.610;25.380;2022-10-16T00:31:26;99011.81;;;11.73;74.79
40850;BME280;26571;41.610;25.380;2022-10-16T00:33:52;99016.72;;;11.68;75.25
40850;BME280;26571;41.610;25.380;2022-10-16T00:36:20;99015.38;;;11.63;75.48
40850;BME280;26571;41.610;25.380;2022-10-16T00:38:46;98978.88;;;11.34;75.32
40850;BME280;26571;41.610;25.380;2022-10-16T00:41:15;99016.25;;;11.64;75.34
40850;BME280;26571;41.610;25.380;2022-10-16T00:43:42;99013.72;;;11.54;75.39
40850;BME280;26571;41.610;25.380;2022-10-16T00:46:16;99019.81;;;11.55;75.47
40850;BME280;26571;41.610;25.380;2022-10-16T00:48:49;99027.09;;;11.61;74.68
40850;BME280;26571;41.610;25.380;2022-10-16T00:51:15;99023.63;;;11.60;75.09
40850;BME280;26571;41.610;25.380;2022-10-16T00:53:43;99024.75;;;11.58;74.49
40850;BME280;26571;41.610;25.380;2022-10-16T00:56:09;99018.38;;;11.60;74.70
40850;BME280;26571;41.610;25.380;2022-10-16T00:58:35;99019.19;;;11.61;74.90
40850;BME280;26571;41.610;25.380;2022-10-16T01:01:00;99025.44;;;11.60;74.62
40850;BME280;26571;41.610;25.380;2022-10-16T01:03:32;99022.47;;;11.63;74.74
40850;BME280;26571;41.610;25.380;2022-10-16T01:08:51;99018.78;;;11.48;74.75
40850;BME280;26571;41.610;25.380;2022-10-16T01:14:07;99023.06;;;11.41;74.68
40850;BME280;26571;41.610;25.380;2022-10-16T01:17:18;99024.19;;;11.38;74.76
40850;BME280;26571;41.610;25.380;2022-10-16T01:22:47;99026.31;;;11.34;75.13
40850;BME280;26571;41.610;25.380;2022-10-16T01:25:30;99030.59;;;11.35;74.75
40850;BME280;26571;41.610;25.380;2022-10-16T01:27:59;99020.34;;;11.32;74.68
40850;BME280;26571;41.610;25.380;2022-10-16T01:30:30;99026.97;;;11.36;74.37
40850;BME280;26571;41.610;25.380;2022-10-16T01:33:02;99029.41;;;11.30;74.47
40850;BME280;26571;41.610;25.380;2022-10-16T01:35:43;99037.16;;;11.31;74.87
40850;BME280;26571;41.610;25.380;2022-10-16T01:40:46;99034.81;;;11.28;74.85
40850;BME280;26571;41.610;25.380;2022-10-16T01:43:18;99037.81;;;11.33;74.76
40850;BME280;26571;41.610;25.380;2022-10-16T01:45:45;99057.06;;;11.26;74.07
40850;BME280;26571;41.610;25.380;2022-10-16T01:48:17;99055.06;;;11.20;74.49
40850;BME280;26571;41.610;25.380;2022-10-16T01:50:44;99050.75;;;11.19;74.55
40850;BME280;26571;41.610;25.380;2022-10-16T01:53:14;99058.66;;;11.19;74.21
40850;BME280;26571;41.610;25.380;2022-10-16T01:55:44;99065.91;;;11.17;74.73
40850;BME280;26571;41.610;25.380;2022-10-16T01:58:13;99032.16;;;10.94;74.19
40850;BME280;26571;41.610;25.380;2022-10-16T02:00:39;99067.91;;;11.23;73.80
40850;BME280;26571;41.610;25.380;2022-10-16T02:03:06;99072.16;;;11.16;74.13
40850;BME280;26571;41.610;25.380;2022-10-16T02:05:51;99068.63;;;11.07;74.42
40850;BME280;26571;41.610;25.380;2022-10-16T02:08:19;99066.78;;;10.99;74.70
40850;BME280;26571;41.610;25.380;2022-10-16T02:10:44;99069.53;;;10.98;74.67
40850;BME280;26571;41.610;25.380;2022-10-16T02:15:36;99056.72;;;11.03;74.67
40850;BME280;26571;41.610;25.380;2022-10-16T02:18:03;99065.72;;;10.92;75.34
40850;BME280;26571;41.610;25.380;2022-10-16T02:20:38;99035.44;;;10.70;75.37
40850;BME280;26571;41.610;25.380;2022-10-16T02:23:08;99072.34;;;10.96;75.38
40850;BME280;26571;41.610;25.380;2022-10-16T02:25:40;99072.72;;;10.83;75.98
40850;BME280;26571;41.610;25.380;2022-10-16T02:28:34;99071.06;;;10.82;75.93
40850;BME280;26571;41.610;25.380;2022-10-16T02:31:04;99073.44;;;10.94;75.60
40850;BME280;26571;41.610;25.380;2022-10-16T02:33:33;99079.09;;;10.99;75.76
40850;BME280;26571;41.610;25.380;2022-10-16T02:36:00;99073.91;;;11.07;75.39
40850;BME280;26571;41.610;25.380;2022-10-16T02:38:26;99080.50;;;11.11;75.44
40850;BME280;26571;41.610;25.380;2022-10-16T02:40:52;99062.41;;;10.90;75.27
40850;BME280;26571;41.610;25.380;2022-10-16T02:43:18;99079.84;;;11.09;75.22
40850;BME280;26571;41.610;25.380;2022-10-16T02:45:44;99085.94;;;11.09;75.04
40850;BME280;26571;41.610;25.380;2022-10-16T02:48:09;99081.44;;;11.02;75.42
40850;BME280;26571;41.610;25.380;2022-10-16T02:50:35;99076.41;;;10.91;75.45
40850;BME280;26571;41.610;25.380;2022-10-16T02:53:01;99087.63;;;10.93;76.17
40850;BME280;26571;41.610;25.380;2022-10-16T02:55:27;99086.03;;;11.00;75.94
40850;BME280;26571;41.610;25.380;2022-10-16T02:57:53;99095.59;;;11.01;76.28
40850;BME280;26571;41.610;25.380;2022-10-16T03:00:19;99095.97;;;11.06;76.31
40850;BME280;26571;41.610;25.380;2022-10-16T03:02:45;99095.25;;;11.04;75.81
40850;BME280;26571;41.610;25.380;2022-10-16T03:05:12;99100.69;;;11.02;76.20
40850;BME280;26571;41.610;25.380;2022-10-16T03:07:38;99090.00;;;11.04;76.42
40850;BME280;26571;41.610;25.380;2022-10-16T03:10:04;99072.97;;;10.90;76.12
40850;BME280;26571;41.610;25.380;2022-10-16T03:12:29;99102.81;;;10.99;76.39
40850;BME280;26571;41.610;25.380;2022-10-16T03:14:55;99101.69;;;11.01;76.74
40850;BME280;26571;41.610;25.380;2022-10-16T03:17:22;99105.06;;;10.94;76.56
40850;BME280;26571;41.610;25.380;2022-10-16T03:19:47;99105.75;;;10.96;76.81
40850;BME280;26571;41.610;25.380;2022-10-16T03:22:12;99111.41;;;11.01;76.77
40850;BME280;26571;41.610;25.380;2022-10-16T03:24:38;99110.03;;;10.97;76.48
40850;BME280;26571;41.610;25.380;2022-10-16T03:27:03;99107.78;;;11.02;75.82
40850;BME280;26571;41.610;25.380;2022-10-16T03:29:29;99115.59;;;10.94;76.16
40850;BME280;26571;41.610;25.380;2022-10-16T03:31:55;99119.84;;;10.86;75.98
40850;BME280;26571;41.610;25.380;2022-10-16T03:34:21;99119.22;;;10.93;75.78
40850;BME280;26571;41.610;25.380;2022-10-16T03:36:47;99116.97;;;10.98;75.70
40850;BME280;26571;41.610;25.380;2022-10-16T03:39:12;99125.56;;;11.00;75.25
40850;BME280;26571;41.610;25.380;2022-10-16T03:41:37;99117.28;;;10.95;75.43
40850;BME280;26571;41.610;25.380;2022-10-16T03:44:03;99067.03;;;10.52;75.01
40850;BME280;26571;41.610;25.380;2022-10-16T03:46:28;99129.75;;;10.93;75.23
40850;BME280;26571;41.610;25.380;2022-10-16T03:48:54;99123.44;;;10.85;75.37
40850;BME280;26571;41.610;25.380;2022-10-16T03:51:20;99126.81;;;10.78;75.71
40850;BME280;26571;41.610;25.380;2022-10-16T03:53:45;99132.16;;;10.68;75.80
40850;BME280;26571;41.610;25.380;2022-10-16T03:56:10;99126.31;;;10.74;75.56
40850;BME280;26571;41.610;25.380;2022-10-16T03:58:36;99135.88;;;10.75;75.91
40850;BME280;26571;41.610;25.380;2022-10-16T04:01:01;99130.59;;;10.75;75.60
40850;BME280;26571;41.610;25.380;2022-10-16T04:03:27;99135.41;;;10.62;75.30
40850;BME280;26571;41.610;25.380;2022-10-16T04:05:52;99125.84;;;10.61;75.90
40850;BME280;26571;41.610;25.380;2022-10-16T04:08:18;99131.28;;;10.59;75.66
40850;BME280;26571;41.610;25.380;2022-10-16T04:10:44;99134.19;;;10.56;75.90
40850;BME280;26571;41.610;25.380;2022-10-16T04:13:09;99130.25;;;10.43;75.93
40850;BME280;26571;41.610;25.380;2022-10-16T04:15:35;99090.69;;;10.07;76.86
40850;BME280;26571;41.610;25.380;2022-10-16T04:18:00;99126.66;;;10.44;76.67
40850;BME280;26571;41.610;25.380;2022-10-16T04:20:26;99127.03;;;10.49;76.79
40850;BME280;26571;41.610;25.380;2022-10-16T04:22:51;99133.97;;;10.50;76.49
40850;BME280;26571;41.610;25.380;2022-10-16T04:25:16;99135.91;;;10.48;76.34
40850;BME280;26571;41.610;25.380;2022-10-16T04:27:42;99135.78;;;10.49;76.36
40850;BME280;26571;41.610;25.380;2022-10-16T04:30:08;99140.88;;;10.51;76.70
40850;BME280;26571;41.610;25.380;2022-10-16T04:32:33;99148.41;;;10.46;76.58
40850;BME280;26571;41.610;25.380;2022-10-16T04:34:58;99147.81;;;10.52;76.60
40850;BME280;26571;41.610;25.380;2022-10-16T04:37:25;99145.84;;;10.54;76.52
40850;BME280;26571;41.610;25.380;2022-10-16T04:39:51;99151.19;;;10.44;76.52
40850;BME280;26571;41.610;25.380;2022-10-16T04:42:16;99136.06;;;10.46;76.67
40850;BME280;26571;41.610;25.380;2022-10-16T04:44:42;99143.13;;;10.64;75.92
40850;BME280;26571;41.610;25.380;2022-10-16T04:47:07;99144.28;;;10.61;75.93
40850;BME280;26571;41.610;25.380;2022-10-16T04:49:33;99147.75;;;10.61;76.34
40850;BME280;26571;41.610;25.380;2022-10-16T04:51:58;99151.03;;;10.64;76.32
40850;BME280;26571;41.610;25.380;2022-10-16T04:54:23;99150.81;;;10.57;76.50
40850;BME280;26571;41.610;25.380;2022-10-16T04:56:49;99154.44;;;10.56;76.05
40850;BME280;26571;41.610;25.380;2022-10-16T04:59:16;99156.91;;;10.57;76.13
40850;BME280;26571;41.610;25.380;2022-10-16T05:01:42;99165.72;;;10.66;75.88
40850;BME280;26571;41.610;25.380;2022-10-16T05:04:08;99173.72;;;10.74;76.37
40850;BME280;26571;41.610;25.380;2022-10-16T05:06:34;99172.00;;;11.01;75.89
40850;BME280;26571;41.610;25.380;2022-10-16T05:08:59;99174.81;;;11.43;74.10
40850;BME280;26571;41.610;25.380;2022-10-16T05:11:24;99178.44;;;11.86;73.48
40850;BME280;26571;41.610;25.380;2022-10-16T05:13:50;99172.22;;;12.37;71.31
40850;BME280;26571;41.610;25.380;2022-10-16T05:16:15;99176.50;;;12.97;68.43
40850;BME280;26571;41.610;25.380;2022-10-16T05:18:41;99178.72;;;13.59;66.59
40850;BME280;26571;41.610;25.380;2022-10-16T05:21:06;99126.69;;;13.90;63.86
40850;BME280;26571;41.610;25.380;2022-10-16T05:23:32;99181.91;;;14.88;61.75
40850;BME280;26571;41.610;25.380;2022-10-16T05:25:58;99185.34;;;15.58;58.62
40850;BME280;26571;41.610;25.380;2022-10-16T05:28:25;99187.09;;;16.18;56.79
40850;BME280;26571;41.610;25.380;2022-10-16T05:30:51;99194.00;;;16.78;54.84
40850;BME280;26571;41.610;25.380;2022-10-16T05:33:17;99200.03;;;17.51;52.88
40850;BME280;26571;41.610;25.380;2022-10-16T05:35:42;99129.84;;;17.58;50.75
40850;BME280;26571;41.610;25.380;2022-10-16T05:38:09;99207.31;;;18.68;49.30
40850;BME280;26571;41.610;25.380;2022-10-16T05:40:34;99208.94;;;19.10;47.76
40850;BME280;26571;41.610;25.380;2022-10-16T05:43:00;99205.03;;;19.13;46.67
40850;BME280;26571;41.610;25.380;2022-10-16T05:45:26;99204.06;;;18.66;47.43
40850;BME280;26571;41.610;25.380;2022-10-16T05:47:51;99204.50;;;18.34;48.26
40850;BME280;26571;41.610;25.380;2022-10-16T05:50:17;99182.69;;;17.83;48.51
40850;BME280;26571;41.610;25.380;2022-10-16T05:52:42;99208.75;;;18.22;48.75
40850;BME280;26571;41.610;25.380;2022-10-16T05:55:08;99212.69;;;18.26;47.56
40850;BME280;26571;41.610;25.380;2022-10-16T05:57:33;99215.16;;;18.00;47.96
40850;BME280;26571;41.610;25.380;2022-10-16T05:59:58;99222.50;;;17.70;48.31
40850;BME280;26571;41.610;25.380;2022-10-16T06:02:24;99209.09;;;17.56;49.77
40850;BME280;26571;41.610;25.380;2022-10-16T06:04:51;99219.91;;;18.04;49.40
40850;BME280;26571;41.610;25.380;2022-10-16T06:07:19;99213.56;;;18.81;47.51
40850;BME280;26571;41.610;25.380;2022-10-16T06:09:48;99223.38;;;19.55;45.46
40850;BME280;26571;41.610;25.380;2022-10-16T06:12:13;99225.66;;;19.92;43.94
40850;BME280;26571;41.610;25.380;2022-10-16T06:14:39;99224.72;;;20.37;43.22
40850;BME280;26571;41.610;25.380;2022-10-16T06:17:04;99222.72;;;20.91;41.09
40850;BME280;26571;41.610;25.380;2022-10-16T06:19:29;99224.13;;;21.38;39.71
40850;BME280;26571;41.610;25.380;2022-10-16T06:21:56;99227.22;;;21.85;39.64
40850;BME280;26571;41.610;25.380;2022-10-16T06:24:23;99214.06;;;22.27;37.84
40850;BME280;26571;41.610;25.380;2022-10-16T06:26:48;99223.16;;;22.63;37.65
40850;BME280;26571;41.610;25.380;2022-10-16T06:29:14;99226.19;;;22.85;37.12
40850;BME280;26571;41.610;25.380;2022-10-16T06:31:39;99232.38;;;23.04;36.65
40850;BME280;26571;41.610;25.380;2022-10-16T06:34:04;99238.00;;;23.14;36.44
40850;BME280;26571;41.610;25.380;2022-10-16T06:36:34;99248.69;;;23.02;36.03
40850;BME280;26571;41.610;25.380;2022-10-16T06:38:59;99237.34;;;23.18;36.14
40850;BME280;26571;41.610;25.380;2022-10-16T06:41:25;99234.56;;;23.37;36.64
40850;BME280;26571;41.610;25.380;2022-10-16T06:43:51;99208.31;;;23.51;35.78
40850;BME280;26571;41.610;25.380;2022-10-16T06:46:20;99238.06;;;23.91;34.99
40850;BME280;26571;41.610;25.380;2022-10-16T06:48:46;99238.91;;;24.03;35.22
40850;BME280;26571;41.610;25.380;2022-10-16T06:51:14;99239.84;;;24.09;34.58
40850;BME280;26571;41.610;25.380;2022-10-16T06:53:43;99239.72;;;24.04;34.28
40850;BME280;26571;41.610;25.380;2022-10-16T06:56:14;99241.59;;;24.03;34.26
40850;BME280;26571;41.610;25.380;2022-10-16T06:58:40;99241.72;;;24.08;34.89
40850;BME280;26571;41.610;25.380;2022-10-16T07:01:05;99229.19;;;24.14;33.88
40850;BME280;26571;41.610;25.380;2022-10-16T07:03:31;99237.50;;;24.12;33.38
40850;BME280;26571;41.610;25.380;2022-10-16T07:06:01;99230.72;;;23.75;33.73
40850;BME280;26571;41.610;25.380;2022-10-16T07:08:30;99240.41;;;23.34;34.76
40850;BME280;26571;41.610;25.380;2022-10-16T07:11:01;99233.16;;;23.23;33.88
40850;BME280;26571;41.610;25.380;2022-10-16T07:13:28;99214.09;;;22.76;35.06
40850;BME280;26571;41.610;25.380;2022-10-16T07:15:53;99240.00;;;22.70;35.21
40850;BME280;26571;41.610;25.380;2022-10-16T07:18:18;99231.56;;;22.85;36.10
40850;BME280;26571;41.610;25.380;2022-10-16T07:20:44;99235.19;;;23.09;36.56
40850;BME280;26571;41.610;25.380;2022-10-16T07:23:09;99227.72;;;23.11;35.03
40850;BME280;26571;41.610;25.380;2022-10-16T07:25:35;99232.41;;;23.15;33.81
40850;BME280;26571;41.610;25.380;2022-10-16T07:28:00;99239.69;;;22.96;34.30
40850;BME280;26571;41.610;25.380;2022-10-16T07:30:26;99243.63;;;22.76;33.92
40850;BME280;26571;41.610;25.380;2022-10-16T07:32:51;99240.97;;;22.57;35.22
40850;BME280;26571;41.610;25.380;2022-10-16T07:35:16;99240.81;;;22.70;34.05
40850;BME280;26571;41.610;25.380;2022-10-16T07:37:47;99233.50;;;22.41;33.76
40850;BME280;26571;41.610;25.380;2022-10-16T07:40:13;99234.56;;;22.40;34.32
40850;BME280;26571;41.610;25.380;2022-10-16T07:42:38;99252.56;;;21.64;34.28
40850;BME280;26571;41.610;25.380;2022-10-16T07:45:04;99244.03;;;21.49;35.67
40850;BME280;26571;41.610;25.380;2022-10-16T07:47:30;99237.06;;;21.41;36.44
40850;BME280;26571;41.610;25.380;2022-10-16T07:49:55;99246.94;;;21.41;35.98
40850;BME280;26571;41.610;25.380;2022-10-16T07:52:20;99248.63;;;21.67;36.17
40850;BME280;26571;41.610;25.380;2022-10-16T07:54:46;99247.47;;;21.81;36.33
40850;BME280;26571;41.610;25.380;2022-10-16T07:57:11;99200.34;;;21.49;34.75
40850;BME280;26571;41.610;25.380;2022-10-16T07:59:37;99237.41;;;21.77;35.88
40850;BME280;26571;41.610;25.380;2022-10-16T08:02:02;99240.97;;;21.96;36.05
40850;BME280;26571;41.610;25.380;2022-10-16T08:04:28;99245.59;;;21.82;35.86
40850;BME280;26571;41.610;25.380;2022-10-16T08:06:53;99246.91;;;21.73;36.42
40850;BME280;26571;41.610;25.380;2022-10-16T08:09:19;99236.47;;;21.64;35.91
40850;BME280;26571;41.610;25.380;2022-10-16T08:11:45;99242.72;;;21.58;35.89
40850;BME280;26571;41.610;25.380;2022-10-16T08:14:10;99238.38;;;21.57;35.35
40850;BME280;26571;41.610;25.380;2022-10-16T08:16:36;99232.38;;;21.62;35.94
40850;BME280;26571;41.610;25.380;2022-10-16T08:19:01;99246.47;;;21.51;35.14
40850;BME280;26571;41.610;25.380;2022-10-16T08:21:26;99237.72;;;21.62;35.70
40850;BME280;26571;41.610;25.380;2022-10-16T08:23:53;99239.75;;;21.66;34.77
40850;BME280;26571;41.610;25.380;2022-10-16T08:26:18;99239.25;;;21.76;35.31
40850;BME280;26571;41.610;25.380;2022-10-16T08:28:44;99237.25;;;21.72;35.33
40850;BME280;26571;41.610;25.380;2022-10-16T08:31:12;99251.66;;;21.46;35.63
40850;BME280;26571;41.610;25.380;2022-10-16T08:33:40;99251.09;;;21.37;35.27
40850;BME280;26571;41.610;25.380;2022-10-16T08:36:06;99247.28;;;21.51;36.43
40850;BME280;26571;41.610;25.380;2022-10-16T08:38:32;99250.66;;;21.40;36.18
40850;BME280;26571;41.610;25.380;2022-10-16T08:41:39;99248.16;;;21.45;35.79
40850;BME280;26571;41.610;25.380;2022-10-16T08:44:24;99243.84;;;21.44;34.96
40850;BME280;26571;41.610;25.380;2022-10-16T08:47:06;99247.47;;;21.18;37.17
40850;BME280;26571;41.610;25.380;2022-10-16T08:49:37;99247.00;;;21.28;37.91
40850;BME280;26571;41.610;25.380;2022-10-16T08:52:10;99245.81;;;21.24;36.90
40850;BME280;26571;41.610;25.380;2022-10-16T08:54:44;99237.94;;;21.35;36.73
40850;BME280;26571;41.610;25.380;2022-10-16T08:57:14;99230.94;;;21.28;36.27
40850;BME280;26571;41.610;25.380;2022-10-16T08:59:41;99227.47;;;20.89;36.19
40850;BME280;26571;41.610;25.380;2022-10-16T09:02:35;99238.69;;;20.46;36.53
40850;BME280;26571;41.610;25.380;2022-10-16T09:07:53;99244.56;;;19.77;36.84
40850;BME280;26571;41.610;25.380;2022-10-16T09:16:28;99235.22;;;20.46;37.46
40850;BME280;26571;41.610;25.380;2022-10-16T09:21:36;99233.19;;;20.92;36.05
40850;BME280;26571;41.610;25.380;2022-10-16T09:24:30;99236.56;;;21.20;35.61
40850;BME280;26571;41.610;25.380;2022-10-16T09:26:56;99234.59;;;21.40;35.51
40850;BME280;26571;41.610;25.380;2022-10-16T09:29:21;99245.66;;;21.50;33.16
40850;BME280;26571;41.610;25.380;2022-10-16T09:31:50;99244.63;;;21.51;34.64
40850;BME280;26571;41.610;25.380;2022-10-16T09:34:39;99234.00;;;21.63;34.38
40850;BME280;26571;41.610;25.380;2022-10-16T09:37:14;99235.13;;;21.80;34.94
40850;BME280;26571;41.610;25.380;2022-10-16T09:39:49;99237.53;;;21.88;33.96
40850;BME280;26571;41.610;25.380;2022-10-16T09:44:49;99235.28;;;21.60;32.84
40850;BME280;26571;41.610;25.380;2022-10-16T09:47:19;99222.59;;;21.49;33.20
40850;BME280;26571;41.610;25.380;2022-10-16T09:49:56;99235.66;;;21.39;33.87
40850;BME280;26571;41.610;25.380;2022-10-16T09:52:24;99218.06;;;21.43;33.95
40850;BME280;26571;41.610;25.380;2022-10-16T09:54:55;99225.22;;;21.17;33.30
40850;BME280;26571;41.610;25.380;2022-10-16T09:57:21;99236.09;;;21.23;34.16
40850;BME280;26571;41.610;25.380;2022-10-16T09:59:52;99233.25;;;21.17;34.36
40850;BME280;26571;41.610;25.380;2022-10-16T10:02:35;99231.75;;;21.35;34.79
40850;BME280;26571;41.610;25.380;2022-10-16T10:05:04;99223.81;;;21.47;34.63
40850;BME280;26571;41.610;25.380;2022-10-16T10:07:32;99203.03;;;21.42;35.09
40850;BME280;26571;41.610;25.380;2022-10-16T10:10:02;99201.16;;;21.49;33.73
40850;BME280;26571;41.610;25.380;2022-10-16T10:12:29;99183.63;;;21.53;33.47
40850;BME280;26571;41.610;25.380;2022-10-16T10:15:03;99224.28;;;21.68;33.63
40850;BME280;26571;41.610;25.380;2022-10-16T10:17:29;99200.19;;;21.37;33.17
40850;BME280;26571;41.610;25.380;2022-10-16T10:20:00;99194.91;;;21.30;33.94
40850;BME280;26571;41.610;25.380;2022-10-16T10:22:42;99202.47;;;21.40;33.50
40850;BME280;26571;41.610;25.380;2022-10-16T10:46:41;99204.81;;;20.85;33.00
40850;BME280;26571;41.610;25.380;2022-10-16T10:49:24;99195.22;;;20.71;34.12
40850;BME280;26571;41.610;25.380;2022-10-16T10:54:45;99174.41;;;20.73;33.97
40850;BME280;26571;41.610;25.380;2022-10-16T11:02:41;99193.25;;;20.91;34.75
40850;BME280;26571;41.610;25.380;2022-10-16T11:08:03;99121.88;;;20.47;33.11
40850;BME280;26571;41.610;25.380;2022-10-16T11:11:29;99189.13;;;20.95;33.33
40850;BME280;26571;41.610;25.380;2022-10-16T11:14:00;99183.94;;;21.00;33.71
40850;BME280;26571;41.610;25.380;2022-10-16T11:16:33;99169.34;;;20.96;33.86
40850;BME280;26571;41.610;25.380;2022-10-16T11:21:49;99169.50;;;20.70;33.78
40850;BME280;26571;41.610;25.380;2022-10-16T11:26:48;99184.81;;;20.43;34.83
40850;BME280;26571;41.610;25.380;2022-10-16T11:29:21;99201.75;;;20.17;33.65
40850;BME280;26571;41.610;25.380;2022-10-16T11:31:51;99181.59;;;20.21;33.68
40850;BME280;26571;41.610;25.380;2022-10-16T11:34:38;99182.00;;;20.24;34.33
40850;BME280;26571;41.610;25.380;2022-10-16T11:37:23;99182.38;;;20.28;32.85
40850;BME280;26571;41.610;25.380;2022-10-16T11:39:52;99178.47;;;20.30;34.30
40850;BME280;26571;41.610;25.380;2022-10-16T11:42:30;99176.41;;;20.39;33.37
40850;BME280;26571;41.610;25.380;2022-10-16T11:45:22;99184.25;;;20.21;33.80
40850;BME280;26571;41.610;25.380;2022-10-16T11:51:21;99180.81;;;19.34;34.21
40850;BME280;26571;41.610;25.380;2022-10-16T11:53:55;99178.78;;;19.36;35.32
40850;BME280;26571;41.610;25.380;2022-10-16T11:56:24;99164.00;;;19.40;36.78
40850;BME280;26571;41.610;25.380;2022-10-16T11:59:00;99180.63;;;19.69;36.44
40850;BME280;26571;41.610;25.380;2022-10-16T12:01:33;99177.53;;;19.92;34.70
40850;BME280;26571;41.610;25.380;2022-10-16T12:04:16;99183.69;;;19.99;33.36
40850;BME280;26571;41.610;25.380;2022-10-16T12:07:02;99177.34;;;20.00;33.88
40850;BME280;26571;41.610;25.380;2022-10-16T12:09:31;99182.84;;;20.11;33.94
40850;BME280;26571;41.610;25.380;2022-10-16T12:11:58;99176.72;;;20.04;33.12
40850;BME280;26571;41.610;25.380;2022-10-16T12:17:27;99175.25;;;20.02;34.53
40850;BME280;26571;41.610;25.380;2022-10-16T12:19:44;99184.09;;;20.09;33.86
40850;BME280;26571;41.610;25.380;2022-10-16T12:22:15;99179.53;;;20.23;34.50
40850;BME280;26571;41.610;25.380;2022-10-16T12:24:43;99181.38;;;20.22;33.84
40850;BME280;26571;41.610;25.380;2022-10-16T12:27:32;99183.00;;;20.23;32.85
40850;BME280;26571;41.610;25.380;2022-10-16T12:30:02;99189.41;;;20.22;33.29
40850;BME280;26571;41.610;25.380;2022-10-16T12:32:36;99195.19;;;20.06;32.40
40850;BME280;26571;41.610;25.380;2022-10-16T12:35:03;99186.97;;;20.01;33.25
40850;BME280;26571;41.610;25.380;2022-10-16T12:37:34;99191.13;;;19.90;33.29
40850;BME280;26571;41.610;25.380;2022-10-16T12:40:22;99193.16;;;19.88;33.66
40850;BME280;26571;41.610;25.380;2022-10-16T12:42:49;99189.06;;;19.79;33.71
40850;BME280;26571;41.610;25.380;2022-10-16T12:45:24;99188.06;;;19.80;34.03
40850;BME280;26571;41.610;25.380;2022-10-16T12:47:52;99188.66;;;19.82;34.43
40850;BME280;26571;41.610;25.380;2022-10-16T12:50:45;99197.28;;;19.84;34.17
40850;BME280;26571;41.610;25.380;2022-10-16T12:53:24;99199.34;;;19.82;33.84
40850;BME280;26571;41.610;25.380;2022-10-16T13:01:20;99198.72;;;19.73;33.38
40850;BME280;26571;41.610;25.380;2022-10-16T13:16:52;99195.84;;;19.68;33.39
40850;BME280;26571;41.610;25.380;2022-10-16T13:19:29;99193.78;;;19.63;32.77
40850;BME280;26571;41.610;25.380;2022-10-16T13:22:37;99191.13;;;19.50;32.71
40850;BME280;26571;41.610;25.380;2022-10-16T13:28:13;99191.09;;;19.37;33.62
40850;BME280;26571;41.610;25.380;2022-10-16T13:30:41;99198.91;;;19.38;33.03
40850;BME280;26571;41.610;25.380;2022-10-16T13:33:15;99194.97;;;19.28;33.03
40850;BME280;26571;41.610;25.380;2022-10-16T13:35:55;99190.25;;;19.17;32.99
40850;BME280;26571;41.610;25.380;2022-10-16T13:38:26;99188.59;;;19.09;33.56
40850;BME280;26571;41.610;25.380;2022-10-16T13:40:56;99194.97;;;19.08;33.82
40850;BME280;26571;41.610;25.380;2022-10-16T13:43:26;99181.59;;;19.01;34.20
40850;BME280;26571;41.610;25.380;2022-10-16T13:45:57;99188.19;;;19.12;34.26
40850;BME280;26571;41.610;25.380;2022-10-16T13:48:23;99182.03;;;19.11;33.79
40850;BME280;26571;41.610;25.380;2022-10-16T13:51:04;99193.09;;;19.08;33.70
40850;BME280;26571;41.610;25.380;2022-10-16T13:53:32;99200.50;;;19.06;33.96
40850;BME280;26571;41.610;25.380;2022-10-16T13:55:58;99175.25;;;18.96;32.51
40850;BME280;26571;41.610;25.380;2022-10-16T13:58:25;99196.16;;;18.99;33.51
40850;BME280;26571;41.610;25.380;2022-10-16T14:00:55;99173.34;;;18.83;33.85
40850;BME280;26571;41.610;25.380;2022-10-16T14:03:21;99197.19;;;18.91;33.56
40850;BME280;26571;41.610;25.380;2022-10-16T14:05:50;99194.50;;;18.91;33.80
40850;BME280;26571;41.610;25.380;2022-10-16T14:08:16;99204.59;;;18.96;33.27
40850;BME280;26571;41.610;25.380;2022-10-16T14:10:42;99195.34;;;18.92;33.89
40850;BME280;26571;41.610;25.380;2022-10-16T14:13:14;99192.06;;;18.96;33.85
40850;BME280;26571;41.610;25.380;2022-10-16T14:15:49;99198.81;;;18.92;33.82
40850;BME280;26571;41.610;25.380;2022-10-16T14:18:23;99195.31;;;18.85;33.95
40850;BME280;26571;41.610;25.380;2022-10-16T14:20:50;99200.66;;;18.85;33.58
40850;BME280;26571;41.610;25.380;2022-10-16T14:23:29;99202.09;;;18.81;33.60
40850;BME280;26571;41.610;25.380;2022-10-16T14:28:34;99204.09;;;18.72;33.85
40850;BME280;26571;41.610;25.380;2022-10-16T14:31:00;99199.59;;;18.73;34.12
40850;BME280;26571;41.610;25.380;2022-10-16T14:38:40;99202.38;;;18.58;34.35
40850;BME280;26571;41.610;25.380;2022-10-16T14:41:07;99211.78;;;18.54;33.96
40850;BME280;26571;41.610;25.380;2022-10-16T14:43:35;99208.28;;;18.47;34.49